YBCS Airport Information

Runway Information
Runway 12 Length 3035 ft width 60 ft
Elevation 9 ft Threshold 0 ft Heading 126
Runway 30 Length 3035 ft Width 60 ft
Elevation 6 ft Threshold 0 ft Heading 306
Runway 15 Length 10489 ft width 148 ft
Elevation 9 ft Threshold 0 ft Heading 156
Runway 33 Length 10489 ft Width 148 ft
Elevation 7 ft Threshold 0 ft Heading 336
Airport Frequencies
Type A/D Name APP/DEP Frequency 118.4 MHZ
Type ATIS Name ATIS Frequency 113 MHZ
Type CLD Name CLNC DEL Frequency 121.7 MHZ
Type GND Name GND Frequency 121.7 MHZ
Type TWR Name TWR Frequency 124.9 MHZ
Airport Navaids
Type VOR-DME Name Cairns Frequency 113000 KHZ
Type NDB Name Cairns Frequency 364 KHZ
Airport Weather Information & NOTAM
ADDS - METARS form results

(1320 UTC 19 June 2021)
Data provider http://aviationweather.gov/metar/data/
 
METAR text: YBCS 191300Z AUTO 15007KT 9999 // NCD 17/13 Q1017
Conditions at: YBCS (CAIRNS AIRPORT , AU) observed 1300 UTC 19 June 2021
Temperature: 17.0°C (63°F)
Dewpoint: 13.0°C (55°F) [RH = 77%]
Pressure (altimeter): 30.03 inches Hg (1017.0 mb)
Winds: from the SSE (150 degrees) at 8 MPH (7 knots; 3.6 m/s)
Visibility: 6 or more miles (10+ km)
Ceiling: at least 12,000 feet AGL
Clouds: sky clear below 12,000 feet AGL
Weather: no significant weather observed at this time

METAR text: YBCS 191230Z AUTO 14005KT 9999 // NCD 17/13 Q1018
Conditions at: YBCS (CAIRNS AIRPORT , AU) observed 1230 UTC 19 June 2021
Temperature: 17.0°C (63°F)
Dewpoint: 13.0°C (55°F) [RH = 77%]
Pressure (altimeter): 30.06 inches Hg (1018.0 mb)
Winds: from the SE (140 degrees) at 6 MPH (5 knots; 2.6 m/s)
Visibility: 6 or more miles (10+ km)
Ceiling: at least 12,000 feet AGL
Clouds: sky clear below 12,000 feet AGL
Weather: no significant weather observed at this time

Forecast for: YBCS (CAIRNS AIRPORT , AU)
Text: TAF YBCS 191102Z 1912/2012 19006KT CAVOK
Forecast period: 1200 UTC 19 June 2021 to 0000 UTC 20 June 2021
Forecast type: FROM: standard forecast or significant change
Winds: from the S (190 degrees) at 7 MPH (6 knots; 3.1 m/s)
Visibility: 6 or more miles (10+ km)
Ceiling: unknown
Clouds: missing
Weather: NSW  (no significant weather)
Text: FM200000 13008KT CAVOK
Forecast period: 0000 to 1200 UTC 20 June 2021
Forecast type: FROM: standard forecast or significant change
Winds: from the SE (130 degrees) at 9 MPH (8 knots; 4.1 m/s)
Visibility: 6 or more miles (10+ km)
Ceiling: unknown
Clouds: missing
Weather: NSW  (no significant weather)